Aviation Digital Data Service (ADDS)

Output produced by METARs form (0717 UTC 22 August 2017)
found at http://aviationweather.gov/adds/metars/
 
KMBS 220525Z 2206/2306 21008KT P6SM SCT045 OVC090 
     FM220900 22010G20KT 3SM SHRA BR VCTS OVC040CB 
     FM221300 23013G23KT P6SM BKN040 
     FM221700 26015G25KT P6SM BKN040 
     PROB30 2218/2221 4SM -SHRA BKN030 
     FM222100 29014G22KT P6SM SCT050 
     FM230200 26006KT P6SM SKC